Terminal Aerodrome Forecast
Issued by NWS Pocatello, ID

Home | Current Version | Previous Version | Text Only | Print | Product List | Glossary On
Versions: 1 2 3 4 5 6 7 8 9 10 11 12 13 14 15
281
FTUS45 KPIH 241720
TAFIDA
TAF
KIDA 241720Z 2418/2518 20011G24KT P6SM BKN150
     FM250300 20011KT P6SM VCSH SCT015 OVC045
     FM250800 20008KT P6SM -SHRA OVC025
     FM251600 22014G24KT P6SM VCSH OVC040=

USA.gov is the U.S. government's official web portal to all federal, state and local government web resources and services.